Vrsac, Serbia

6:55 AM CEST on August 20, 2014 (GMT +0200)
Vrsac | Change Station
CLOSE
Current Station
Airport
Location: Vrsac,
Elevation: 279 ft
Nearby Weather Stations

Elev 279 ft 45.15 °N, 21.31 °E | Updated 25 minutes ago

Clear
Clear
66 °F
Feels Like 66 °F
N
1
Wind Variable Wind from Variable

Today
High -- | Low -- °F
--% Chance of Precip.
Yesterday
High -- | Low -- °F
Precip. -- in
5:41 AM 7:33 PM
Waning Crescent, 24% visible
Pressure 29.95 in
Visibility -9999.0 miles
Clouds
Dew Point 57 °F
Humidity 73%
Rainfall 0.00 in
Snow Depth Not available.
UV Not available.
Pollen Not available.
Air Quality Not available.
Flu Activity Not available.
METAR LYVR 200430Z VRB01KT CAVOK 19/14 Q1014 NOSIG

More Conditions Fewer Conditions

Pressure 29.95 in
Visibility -9999.0 miles
Clouds
Dew Point 57 °F
Humidity 73%
Rainfall 0.00 in
Snow Depth Not available.
UV Not available.
Pollen Not available.
Air Quality Not available.
Flu Activity Not available.
METAR LYVR 200430Z VRB01KT CAVOK 19/14 Q1014 NOSIG

More Conditions Fewer Conditions

10-Day Weather Forecast

Almanac

Astronomy

Aug. 20, 2014 Rise Set
Actual Time 5:41 AM CEST 7:33 PM CEST
Civil Twilight 5:10 AM CEST 8:05 PM CEST
Nautical Twilight 4:31 AM CEST 8:43 PM CEST
Astronomical Twilight 3:49 AM CEST 9:25 PM CEST
Moon 1:01 AM CEST 4:09 PM CEST
Length of Visible Light 14h 54m
Length of Day
13h 51m
Tomorrow will be 2m 53s shorter.
Waning Crescent, 24% of the Moon is Illuminated
Today
Waning Crescent
Aug 25
New
Sep 2
First Quarter
Sep 8
Full
Sep 15
Last Quarter

Community

WunderPhotos

Upload Photos

1,745,585 photos uploaded!

Nearby

Snow Depth

Not available.

Earthquake Activity

City Distance Mag. Time & Date
No recent earthquake activity has been reported nearby.
Minimum magnitude displayed is 2.5.

Coastal Water Temperatures

Place Temperature
No Stations Reporting

Nearby Weather Stations